Time;durP1;ratioP1;P1;durP2;ratioP2;P2;SDS_P1;SDS_P2;PMS_P1;PMS_P2;Temp;Humidity;BMP_temperature;BMP_pressure;BME280_temperature;BME280_humidity;BME280_pressure;Samples;Min_cycle;Max_cycle;Signal;HPM_P1;HPM_P2
2023/10/19 00:00:43;;;;;;;12.75;9.57;;;;;;;8.13;100.00;91904.66;6301966;22;20018;-77
2023/10/19 00:03:11;;;;;;;202.20;14.75;;;;;;;8.12;100.00;91898.66;6301771;22;20019;-76
2023/10/19 00:05:37;;;;;;;1313.45;39.85;;;;;;;8.09;100.00;91896.63;6302821;22;19999;-77
2023/10/19 00:10:43;;;;;;;184.63;14.00;;;;;;;8.06;100.00;91889.38;6302082;22;20034;-77
2023/10/19 00:13:13;;;;;;;35.08;11.25;;;;;;;8.04;100.00;91883.69;6301278;22;20046;-76
2023/10/19 00:15:40;;;;;;;13.15;9.38;;;;;;;8.07;100.00;91880.50;6301307;22;20110;-76
2023/10/19 00:23:13;;;;;;;13.25;9.68;;;;;;;8.06;100.00;91876.34;6301913;22;20082;-77
2023/10/19 00:25:44;;;;;;;13.77;9.73;;;;;;;8.06;100.00;91865.91;6249054;22;20454;-77
2023/10/19 00:28:12;;;;;;;13.52;9.88;;;;;;;8.09;100.00;91867.94;6302593;22;20022;-76
2023/10/19 00:30:42;;;;;;;12.77;9.05;;;;;;;8.10;100.00;91864.28;6302318;22;20018;-76
2023/10/19 00:33:19;;;;;;;12.43;8.73;;;;;;;8.11;100.00;91858.00;6274087;22;20352;-78
2023/10/19 00:36:00;;;;;;;11.95;8.23;;;;;;;8.15;100.00;91860.84;6250340;22;20012;-77
2023/10/19 00:41:00;;;;;;;11.52;8.27;;;;;;;8.17;100.00;91852.72;6273976;22;20016;-76
2023/10/19 00:43:28;;;;;;;12.70;8.55;;;;;;;8.18;100.00;91856.88;6273872;22;20007;-78
2023/10/19 00:45:54;;;;;;;12.68;7.95;;;;;;;8.24;100.00;91850.50;6248047;22;20340;-76
2023/10/19 00:48:26;;;;;;;13.32;8.52;;;;;;;8.20;100.00;91846.94;6275167;22;20065;-77
2023/10/19 00:51:06;;;;;;;13.57;8.17;;;;;;;8.19;100.00;91834.94;6302226;22;20464;-77
2023/10/19 00:53:35;;;;;;;12.85;8.70;;;;;;;8.18;100.00;91836.03;6301267;22;20015;-77
2023/10/19 00:56:05;;;;;;;309.50;13.82;;;;;;;8.18;100.00;91825.59;6301374;22;20022;-76
2023/10/19 00:58:35;;;;;;;95.97;11.27;;;;;;;8.17;100.00;91829.25;6274039;22;20011;-76
2023/10/19 01:01:05;;;;;;;11.82;8.82;;;;;;;8.19;100.00;91833.09;6274498;22;20042;-76
2023/10/19 01:03:36;;;;;;;58.08;10.32;;;;;;;8.17;100.00;91824.78;6274637;22;20018;-77
2023/10/19 01:06:09;;;;;;;12.88;9.75;;;;;;;8.12;100.00;91815.22;6300720;22;20011;-77
2023/10/19 01:08:41;;;;;;;12.13;9.27;;;;;;;8.12;100.00;91823.03;6301880;22;20007;-76
2023/10/19 01:11:11;;;;;;;11.32;8.50;;;;;;;8.20;100.00;91820.88;6300244;22;20011;-76
2023/10/19 01:13:38;;;;;;;41.72;9.48;;;;;;;8.13;100.00;91816.78;6301959;22;20042;-76
2023/10/19 01:16:04;;;;;;;64.35;9.95;;;;;;;8.12;100.00;91809.25;6300726;22;20003;-76
2023/10/19 01:18:33;;;;;;;213.13;13.05;;;;;;;8.11;100.00;91800.66;6301138;22;20011;-77
2023/10/19 01:21:04;;;;;;;58.35;10.85;;;;;;;8.07;100.00;91799.69;6273353;22;20022;-77
2023/10/19 01:23:30;;;;;;;162.57;11.73;;;;;;;8.04;100.00;91797.66;6273608;22;20019;-77
2023/10/19 01:28:42;;;;;;;41.97;10.45;;;;;;;8.01;100.00;91798.22;6300983;22;20015;-77
2023/10/19 01:31:22;;;;;;;17.75;10.25;;;;;;;8.03;100.00;91784.91;6300722;22;20029;-76
2023/10/19 01:33:49;;;;;;;30.75;10.05;;;;;;;8.07;100.00;91781.44;6301766;22;20517;-77
2023/10/19 01:36:24;;;;;;;16.02;9.60;;;;;;;8.08;100.00;91787.41;6300324;22;20011;-76
2023/10/19 01:38:54;;;;;;;13.15;9.35;;;;;;;8.08;100.00;91784.81;6274048;22;20031;-76
2023/10/19 01:41:21;;;;;;;11.43;9.00;;;;;;;8.08;100.00;91785.59;6273369;22;20501;-77
2023/10/19 01:43:48;;;;;;;12.80;8.70;;;;;;;8.11;100.00;91779.03;6300985;22;20425;-76
2023/10/19 01:46:23;;;;;;;11.05;8.30;;;;;;;8.12;100.00;91765.69;6300157;22;20090;-77
2023/10/19 01:48:55;;;;;;;10.82;7.57;;;;;;;8.14;100.00;91755.75;6300998;22;20015;-76
2023/10/19 01:51:23;;;;;;;10.65;7.32;;;;;;;8.19;100.00;91762.72;6300952;22;20448;-78
2023/10/19 01:53:49;;;;;;;9.18;6.63;;;;;;;8.20;100.00;91758.28;6274110;22;20004;-77
2023/10/19 01:56:16;;;;;;;9.15;6.57;;;;;;;8.23;100.00;91757.69;6301752;22;20094;-77
2023/10/19 01:58:46;;;;;;;9.43;6.72;;;;;;;8.23;100.00;91762.91;6273293;22;20072;-76
2023/10/19 02:03:43;;;;;;;11.43;8.40;;;;;;;8.23;100.00;91755.88;6273090;22;20019;-77
2023/10/19 02:06:17;;;;;;;11.70;8.65;;;;;;;8.22;100.00;91756.16;6273428;22;20046;-77
2023/10/19 02:08:51;;;;;;;10.80;8.45;;;;;;;8.23;100.00;91749.88;6273084;22;20056;-77
2023/10/19 02:11:22;;;;;;;11.23;8.63;;;;;;;8.21;100.00;91750.16;6273176;22;20340;-77
2023/10/19 02:13:59;;;;;;;12.00;8.55;;;;;;;8.20;100.00;91755.69;6273145;22;20355;-77
2023/10/19 02:16:27;;;;;;;10.30;7.53;;;;;;;8.21;100.00;91749.41;6301474;22;20043;-77
2023/10/19 02:18:53;;;;;;;10.65;7.82;;;;;;;8.19;100.00;91743.69;6301975;22;19999;-76
2023/10/19 02:21:22;;;;;;;9.40;7.28;;;;;;;8.19;100.00;91736.63;6300057;22;20266;-76
2023/10/19 02:23:50;;;;;;;8.95;6.40;;;;;;;8.21;100.00;91731.16;6300648;22;20007;-76
2023/10/19 02:26:19;;;;;;;8.52;5.90;;;;;;;8.18;100.00;91737.72;6300438;22;19999;-76
2023/10/19 02:28:52;;;;;;;8.85;6.38;;;;;;;8.18;100.00;91736.94;6300695;22;20352;-76
2023/10/19 02:31:23;;;;;;;10.00;7.22;;;;;;;8.19;100.00;91728.06;6299732;22;20017;-77
2023/10/19 02:33:54;;;;;;;10.20;7.85;;;;;;;8.20;100.00;91738.19;6301112;22;20015;-76
2023/10/19 02:36:23;;;;;;;11.23;6.72;;;;;;;8.22;100.00;91727.47;6300955;22;20513;-76
2023/10/19 02:38:49;;;;;;;9.98;6.88;;;;;;;8.25;100.00;91719.09;6301135;22;20007;-77
2023/10/19 02:41:17;;;;;;;10.82;7.15;;;;;;;8.24;100.00;91720.91;6302980;22;20149;-76
2023/10/19 02:43:47;;;;;;;8.98;6.72;;;;;;;8.22;100.00;91719.66;6275240;22;20467;-77
2023/10/19 02:46:13;;;;;;;77.15;6.85;;;;;;;8.33;100.00;91711.34;6303836;22;20015;-76
2023/10/19 02:48:44;;;;;;;524.13;18.75;;;;;;;8.24;100.00;91713.09;6274917;22;20011;-76
2023/10/19 02:51:13;;;;;;;370.95;12.05;;;;;;;8.17;100.00;91712.69;6249949;22;20019;-76
2023/10/19 02:53:42;;;;;;;437.05;15.65;;;;;;;8.04;100.00;91716.84;6302099;22;20406;-77
2023/10/19 02:56:23;;;;;;;349.13;12.43;;;;;;;7.94;100.00;91709.22;6275649;22;20030;-76
2023/10/19 02:58:49;;;;;;;729.00;18.27;;;;;;;7.93;100.00;91710.28;6274805;22;20070;-77
2023/10/19 03:01:24;;;;;;;516.17;15.00;;;;;;;7.90;100.00;91703.81;6303048;22;20397;-76
2023/10/19 03:03:53;;;;;;;395.85;12.88;;;;;;;7.89;100.00;91706.69;6302506;22;20085;-76
2023/10/19 03:06:23;;;;;;;36.58;7.00;;;;;;;7.90;100.00;91703.81;6275321;22;20007;-76
2023/10/19 03:08:57;;;;;;;29.52;6.78;;;;;;;7.90;100.00;91688.19;6275449;22;20023;-77
2023/10/19 03:11:25;;;;;;;20.40;5.47;;;;;;;7.95;100.00;91689.13;6300724;22;20011;-76
2023/10/19 03:13:50;;;;;;;7.90;6.05;;;;;;;7.94;100.00;91688.34;6302641;22;20003;-77
2023/10/19 03:16:19;;;;;;;8.48;5.85;;;;;;;7.96;100.00;91685.47;6301936;22;20120;-76
2023/10/19 03:18:44;;;;;;;6.53;5.22;;;;;;;7.98;100.00;91678.13;6302171;22;20011;-76
2023/10/19 03:21:11;;;;;;;7.30;5.50;;;;;;;7.96;100.00;91678.41;6275248;22;20018;-76
2023/10/19 03:23:37;;;;;;;6.57;4.40;;;;;;;8.04;100.00;91682.97;6303458;22;20094;-78
2023/10/19 03:28:56;;;;;;;6.30;4.88;;;;;;;8.01;100.00;91678.31;6304420;22;20011;-77
2023/10/19 03:31:25;;;;;;;6.47;4.57;;;;;;;7.99;100.00;91675.22;6303920;22;20077;-78
2023/10/19 03:33:54;;;;;;;6.80;4.90;;;;;;;8.02;100.00;91674.66;6275983;22;20038;-79
2023/10/19 03:36:24;;;;;;;6.78;4.65;;;;;;;8.03;100.00;91665.00;6275939;22;20015;-76
2023/10/19 03:38:53;;;;;;;7.10;4.95;;;;;;;8.07;100.00;91665.97;6274205;22;20016;-78
2023/10/19 03:41:26;;;;;;;7.35;5.13;;;;;;;8.03;100.00;91657.94;6272758;22;20099;-77
2023/10/19 03:43:54;;;;;;;7.15;5.20;;;;;;;8.05;100.00;91653.22;6274870;22;20026;-76
2023/10/19 03:46:31;;;;;;;7.35;4.85;;;;;;;8.04;100.00;91654.31;6275498;22;20022;-77
2023/10/19 03:49:10;;;;;;;9.15;4.80;;;;;;;8.05;100.00;91642.78;6302022;22;20043;-78
2023/10/19 03:51:40;;;;;;;6.07;4.40;;;;;;;8.06;100.00;91646.16;6301119;22;20414;-77
2023/10/19 03:54:21;;;;;;;5.45;4.10;;;;;;;8.08;100.00;91639.63;6274974;22;20392;-76
2023/10/19 03:56:50;;;;;;;6.70;4.15;;;;;;;8.10;100.00;91639.31;6275226;22;20035;-76
2023/10/19 03:59:17;;;;;;;6.50;4.70;;;;;;;8.11;100.00;91636.44;6302191;22;20019;-78
2023/10/19 04:01:43;;;;;;;5.18;3.95;;;;;;;8.10;100.00;91621.84;6274552;22;20007;-77
2023/10/19 04:04:13;;;;;;;269.42;9.48;;;;;;;8.07;100.00;91617.22;6275167;22;20491;-78
2023/10/19 04:06:40;;;;;;;720.55;19.95;;;;;;;8.06;100.00;91615.69;6302221;22;20077;-78
2023/10/19 04:09:06;;;;;;;503.40;16.35;;;;;;;8.00;100.00;91608.25;6301995;22;20328;-78
2023/10/19 04:11:33;;;;;;;382.70;12.82;;;;;;;7.96;100.00;91618.47;6301816;22;20012;-78
2023/10/19 04:14:03;;;;;;;725.00;19.88;;;;;;;7.97;100.00;91620.03;6302047;22;20345;-77
2023/10/19 04:16:31;;;;;;;244.25;9.63;;;;;;;7.96;100.00;91617.72;6300846;22;20015;-77
2023/10/19 04:18:58;;;;;;;397.40;11.15;;;;;;;7.97;100.00;91622.66;6301662;22;20479;-78
2023/10/19 04:21:23;;;;;;;26.75;5.43;;;;;;;7.98;100.00;91611.16;6300809;22;20492;-78
2023/10/19 04:23:49;;;;;;;10.45;5.30;;;;;;;8.03;100.00;91608.44;6302131;22;20006;-78
2023/10/19 04:26:18;;;;;;;8.43;5.65;;;;;;;8.05;100.00;91606.31;6302746;22;20137;-78
2023/10/19 04:28:50;;;;;;;6.45;4.53;;;;;;;8.11;100.00;91610.38;6302213;22;20308;-79
2023/10/19 04:31:17;;;;;;;5.95;3.90;;;;;;;8.10;100.00;91598.38;6299956;22;20153;-78
2023/10/19 04:33:47;;;;;;;7.03;4.35;;;;;;;8.11;100.00;91599.94;6300444;22;20026;-83
2023/10/19 04:36:14;;;;;;;5.50;3.78;;;;;;;8.12;100.00;91601.47;6300332;22;20464;-77
2023/10/19 04:38:41;;;;;;;6.10;4.30;;;;;;;8.16;100.00;91595.69;6304780;22;20026;-77
2023/10/19 04:41:09;;;;;;;5.63;3.85;;;;;;;8.18;100.00;91588.34;6302300;22;20375;-77
2023/10/19 04:43:39;;;;;;;6.28;3.42;;;;;;;8.19;100.00;91584.66;6299480;22;20224;-77
2023/10/19 04:46:12;;;;;;;5.32;3.30;;;;;;;8.22;100.00;91581.47;6299512;22;20403;-78
2023/10/19 04:48:39;;;;;;;4.50;3.20;;;;;;;8.27;100.00;91576.16;6270866;22;20015;-79
2023/10/19 04:51:11;;;;;;;3.85;2.60;;;;;;;8.32;100.00;91563.00;6273528;22;20003;-78
2023/10/19 04:53:37;;;;;;;3.92;2.60;;;;;;;8.31;100.00;91572.66;6300207;22;20007;-78
2023/10/19 04:56:05;;;;;;;26.83;3.90;;;;;;;8.27;100.00;91573.56;6273394;22;20022;-77
2023/10/19 04:58:31;;;;;;;94.13;5.82;;;;;;;8.21;100.00;91566.91;6299722;22;20034;-77
2023/10/19 05:00:58;;;;;;;5.63;3.97;;;;;;;8.20;100.00;91565.38;6299422;22;20437;-77
2023/10/19 05:03:25;;;;;;;11.90;4.57;;;;;;;8.19;100.00;91563.81;6297735;22;20575;-79
2023/10/19 05:05:51;;;;;;;7.10;3.60;;;;;;;8.19;100.00;91561.19;6299261;22;20006;-78
2023/10/19 05:08:19;;;;;;;4.53;3.28;;;;;;;8.16;100.00;91556.59;6299043;22;20015;-77
2023/10/19 05:10:44;;;;;;;4.72;2.65;;;;;;;8.18;100.00;91560.44;6301507;22;20022;-78
2023/10/19 05:13:15;;;;;;;3.92;2.70;;;;;;;8.20;100.00;91547.13;6302740;22;20014;-77
2023/10/19 05:15:42;;;;;;;4.43;2.67;;;;;;;8.22;100.00;91547.56;6301944;22;20046;-78
2023/10/19 05:18:08;;;;;;;4.38;3.00;;;;;;;8.21;100.00;91546.03;6275407;22;20056;-77
2023/10/19 05:20:33;;;;;;;4.72;3.30;;;;;;;8.21;100.00;91546.03;6302161;22;20352;-78
2023/10/19 05:23:00;;;;;;;34.35;4.38;;;;;;;8.24;100.00;91545.44;6274088;22;20011;-77
2023/10/19 05:25:26;;;;;;;634.90;19.25;;;;;;;8.12;100.00;91549.34;6273712;22;20034;-78
2023/10/19 05:27:51;;;;;;;139.88;6.20;;;;;;;8.14;100.00;91549.03;6303205;22;20566;-77
2023/10/19 05:30:17;;;;;;;738.22;18.88;;;;;;;8.17;100.00;91551.06;6272192;22;20015;-77
2023/10/19 05:32:43;;;;;;;37.05;3.90;;;;;;;8.12;100.00;91556.38;6274196;22;20026;-78
2023/10/19 05:35:12;;;;;;;333.20;11.18;;;;;;;8.08;100.00;91558.03;6302102;22;20007;-77
2023/10/19 05:37:38;;;;;;;4.75;3.28;;;;;;;8.08;100.00;91558.81;6302121;22;20460;-78
2023/10/19 05:40:04;;;;;;;5.10;3.60;;;;;;;8.10;100.00;91558.50;6299721;22;20025;-79
2023/10/19 05:42:31;;;;;;;4.47;3.10;;;;;;;8.12;100.00;91554.53;6299677;22;19995;-77
2023/10/19 05:44:57;;;;;;;3.90;2.58;;;;;;;8.16;100.00;91551.38;6273251;22;20011;-78
2023/10/19 05:47:22;;;;;;;3.83;2.25;;;;;;;8.18;100.00;91557.06;6300126;22;20155;-77
2023/10/19 05:49:48;;;;;;;3.10;1.90;;;;;;;8.22;100.00;91565.81;6300226;22;20029;-78
2023/10/19 05:52:14;;;;;;;3.22;1.80;;;;;;;8.25;100.00;91554.81;6301935;22;20011;-77
2023/10/19 05:54:40;;;;;;;2.28;1.50;;;;;;;8.29;100.00;91558.38;6274409;22;20031;-78
2023/10/19 05:57:08;;;;;;;5.35;1.60;;;;;;;8.32;100.00;91547.34;6303343;22;20064;-78
2023/10/19 05:59:34;;;;;;;2.75;1.83;;;;;;;8.36;100.00;91557.97;6301315;22;20027;-77
2023/10/19 06:01:59;;;;;;;2.45;1.70;;;;;;;8.39;100.00;91546.97;6301545;22;20038;-78
2023/10/19 06:04:25;;;;;;;2.13;1.42;;;;;;;8.42;100.00;91544.56;6275337;22;20018;-77
2023/10/19 06:06:51;;;;;;;2.60;1.40;;;;;;;8.42;100.00;91549.78;6301546;22;20395;-78
2023/10/19 06:09:17;;;;;;;1.00;0.90;;;;;;;8.42;100.00;91549.78;6301614;22;20022;-77
2023/10/19 06:11:42;;;;;;;2.65;1.52;;;;;;;8.43;100.00;91537.50;6302848;22;20011;-78
2023/10/19 06:14:09;;;;;;;3.05;1.60;;;;;;;8.45;100.00;91532.78;6302766;22;20468;-78
2023/10/19 06:16:35;;;;;;;2.80;1.70;;;;;;;8.48;100.00;91535.53;6276919;22;20014;-78
2023/10/19 06:19:01;;;;;;;2.50;1.60;;;;;;;8.48;100.00;91535.53;6303795;22;20011;-78
2023/10/19 06:21:26;;;;;;;2.22;1.60;;;;;;;8.48;100.00;91535.53;6302815;22;20011;-77
2023/10/19 06:23:54;;;;;;;2.42;1.60;;;;;;;8.50;100.00;91522.22;6304807;22;20053;-78
2023/10/19 06:26:20;;;;;;;2.08;1.52;;;;;;;8.52;100.00;91525.31;6276901;22;20019;-78
2023/10/19 06:28:46;;;;;;;2.42;1.63;;;;;;;8.54;100.00;91507.53;6301962;22;20044;-78
2023/10/19 06:31:12;;;;;;;1.77;1.40;;;;;;;8.57;100.00;91506.91;6302809;22;20016;-78
2023/10/19 06:33:41;;;;;;;2.60;1.40;;;;;;;8.71;100.00;91522.50;6302357;22;20034;-79
2023/10/19 06:36:07;;;;;;;11.15;2.13;;;;;;;8.84;100.00;91529.50;6301473;22;20018;-77
2023/10/19 06:38:32;;;;;;;142.88;5.00;;;;;;;8.74;100.00;91534.97;6302145;22;20060;-77
2023/10/19 06:41:10;;;;;;;15.68;2.20;;;;;;;8.65;100.00;91539.38;6299107;22;20019;-78
2023/10/19 06:43:36;;;;;;;9.80;2.40;;;;;;;8.59;100.00;91545.75;6302071;22;20141;-79
2023/10/19 06:46:02;;;;;;;2.33;1.58;;;;;;;8.55;100.00;91541.13;6276166;22;20037;-78
2023/10/19 06:48:28;;;;;;;2.47;1.60;;;;;;;8.54;100.00;91539.59;6302355;22;20011;-78
2023/10/19 06:50:54;;;;;;;2.10;1.50;;;;;;;8.53;100.00;91540.66;6301268;22;20476;-78
2023/10/19 06:53:19;;;;;;;4.40;1.30;;;;;;;8.59;100.00;91540.53;6302075;22;20003;-77
2023/10/19 06:55:45;;;;;;;1.67;1.30;;;;;;;8.59;100.00;91530.88;6301742;22;20019;-78
2023/10/19 06:58:12;;;;;;;2.22;1.20;;;;;;;8.63;100.00;91537.03;6300922;22;20016;-78
2023/10/19 07:00:42;;;;;;;1.85;1.20;;;;;;;8.66;100.00;91538.28;6302997;22;20003;-78
2023/10/19 07:03:08;;;;;;;1.90;1.30;;;;;;;8.68;100.00;91538.75;6276195;22;20360;-78
2023/10/19 07:05:34;;;;;;;1.55;1.20;;;;;;;8.69;100.00;91537.69;6303478;22;20018;-78
2023/10/19 07:08:01;;;;;;;107.20;4.18;;;;;;;8.73;100.00;91531.56;6303374;22;20019;-79
2023/10/19 07:10:27;;;;;;;462.13;14.43;;;;;;;8.71;100.00;91535.53;6303580;22;20042;-78
2023/10/19 07:12:55;;;;;;;939.92;27.92;;;;;;;8.58;100.00;91539.78;6275620;22;20314;-77
2023/10/19 07:15:22;;;;;;;369.27;10.40;;;;;;;8.57;100.00;91548.66;6303043;22;20462;-77
2023/10/19 07:17:49;;;;;;;502.65;13.45;;;;;;;8.50;100.00;91549.06;6303055;22;20015;-77
2023/10/19 07:20:25;;;;;;;826.72;22.27;;;;;;;8.46;100.00;91534.31;6303027;22;20084;-77
2023/10/19 07:22:52;;;;;;;582.92;14.65;;;;;;;8.34;100.00;91532.19;6303863;22;20345;-77
2023/10/19 07:25:21;;;;;;;119.47;4.60;;;;;;;8.30;100.00;91531.25;6303416;22;20182;-78
2023/10/19 07:27:48;;;;;;;254.23;6.95;;;;;;;8.32;100.00;91532.47;6303397;22;20010;-77
2023/10/19 07:30:15;;;;;;;3.20;2.00;;;;;;;8.34;100.00;91537.41;6302996;22;20019;-78
2023/10/19 07:32:41;;;;;;;2.75;1.70;;;;;;;8.40;100.00;91538.06;6302788;22;20330;-77
2023/10/19 07:35:07;;;;;;;2.25;1.60;;;;;;;8.44;100.00;91539.03;6275323;22;20011;-77
2023/10/19 07:37:33;;;;;;;2.05;1.48;;;;;;;8.48;100.00;91535.53;6249741;22;20021;-77
2023/10/19 07:39:58;;;;;;;2.15;1.40;;;;;;;8.53;100.00;91535.44;6303361;22;20023;-78
2023/10/19 07:42:25;;;;;;;2.80;1.67;;;;;;;8.55;100.00;91528.06;6302744;22;20012;-78
2023/10/19 07:44:51;;;;;;;3.15;1.70;;;;;;;8.59;100.00;91530.09;6302269;22;20447;-78
2023/10/19 07:47:16;;;;;;;4.85;1.40;;;;;;;8.62;100.00;91534.72;6302718;22;20019;-78
2023/10/19 07:49:43;;;;;;;434.23;13.63;;;;;;;8.62;100.00;91535.47;6303304;22;20349;-78
2023/10/19 07:52:10;;;;;;;442.67;13.82;;;;;;;8.56;100.00;91536.69;6303063;22;20003;-78
2023/10/19 07:54:37;;;;;;;323.05;8.75;;;;;;;8.50;100.00;91537.88;6302603;22;20027;-79
2023/10/19 07:57:08;;;;;;;4.68;2.60;;;;;;;8.52;100.00;91536.50;6303231;22;20015;-78
2023/10/19 07:59:34;;;;;;;4.15;2.15;;;;;;;8.52;100.00;91531.28;6302457;22;20197;-78
2023/10/19 08:02:02;;;;;;;4.75;1.90;;;;;;;8.53;100.00;91525.00;6303147;22;19999;-78
2023/10/19 08:04:29;;;;;;;2.78;1.80;;;;;;;8.55;100.00;91525.47;6302743;22;20156;-78
2023/10/19 08:06:58;;;;;;;2.33;1.40;;;;;;;8.58;100.00;91523.31;6302695;22;20330;-77
2023/10/19 08:09:24;;;;;;;2.20;1.40;;;;;;;8.58;100.00;91520.72;6302513;22;20005;-77
2023/10/19 08:11:55;;;;;;;1.33;1.23;;;;;;;8.63;100.00;91523.22;6302787;22;20433;-78
2023/10/19 08:14:26;;;;;;;1.13;0.90;;;;;;;8.63;100.00;91518.00;6302608;22;20073;-78
2023/10/19 08:16:53;;;;;;;1.00;0.90;;;;;;;8.70;100.00;91526.19;6302583;22;20030;-77
2023/10/19 08:19:19;;;;;;;1.55;1.20;;;;;;;8.72;100.00;91524.06;6275062;22;20028;-77
2023/10/19 08:21:45;;;;;;;1.52;1.20;;;;;;;8.77;100.00;91520.56;6302713;22;20018;-78
2023/10/19 08:24:17;;;;;;;1.10;1.00;;;;;;;8.81;100.00;91511.84;6275083;22;20022;-77
2023/10/19 08:26:45;;;;;;;2.35;1.30;;;;;;;8.84;100.00;91505.25;6274661;22;20453;-78
2023/10/19 08:29:14;;;;;;;1.70;1.10;;;;;;;8.87;100.00;91507.25;6302587;22;20428;-78
2023/10/19 08:31:46;;;;;;;1.20;1.08;;;;;;;8.92;100.00;91502.69;6302329;22;20480;-79
2023/10/19 08:34:13;;;;;;;1.50;1.10;;;;;;;8.95;100.00;91496.84;6302706;22;20011;-78
2023/10/19 08:36:39;;;;;;;1.52;1.20;;;;;;;9.01;100.00;91494.13;6302782;22;20022;-78
2023/10/19 08:39:09;;;;;;;80.72;3.63;;;;;;;9.04;100.00;91480.47;6301625;22;20004;-78
2023/10/19 08:41:36;;;;;;;68.07;3.65;;;;;;;9.00;100.00;91477.69;6302245;22;20007;-77
2023/10/19 08:44:04;;;;;;;242.63;6.68;;;;;;;8.92;100.00;91486.25;6274379;22;20468;-78
2023/10/19 08:46:30;;;;;;;392.38;10.82;;;;;;;8.89;100.00;91484.22;6299938;22;20436;-76
2023/10/19 08:48:56;;;;;;;1.60;1.20;;;;;;;8.84;100.00;91494.81;6302454;22;20018;-77
2023/10/19 08:51:24;;;;;;;148.35;5.15;;;;;;;8.87;100.00;91488.97;6302063;22;20011;-77
2023/10/19 08:53:53;;;;;;;5.07;2.30;;;;;;;8.90;100.00;91483.94;6302441;22;20429;-76
2023/10/19 08:56:19;;;;;;;3.13;1.92;;;;;;;8.96;100.00;91489.78;6302404;22;20029;-76
2023/10/19 08:58:46;;;;;;;3.60;2.15;;;;;;;9.02;100.00;91485.22;6302278;22;20512;-76
2023/10/19 09:01:12;;;;;;;4.60;2.10;;;;;;;9.09;100.00;91480.34;6302746;22;20011;-77
2023/10/19 09:03:38;;;;;;;2.58;1.70;;;;;;;9.12;100.00;91480.50;6302124;22;19999;-77
2023/10/19 09:06:05;;;;;;;164.23;5.70;;;;;;;9.15;100.00;91482.50;6302170;22;20095;-76
2023/10/19 09:08:40;;;;;;;928.25;25.65;;;;;;;9.07;100.00;91475.41;6301674;22;20019;-76
2023/10/19 09:11:12;;;;;;;635.10;18.88;;;;;;;8.99;100.00;91470.94;6276789;22;20216;-76
2023/10/19 09:13:48;;;;;;;128.38;5.82;;;;;;;8.94;100.00;91463.25;6301780;22;20039;-76
2023/10/19 09:16:18;;;;;;;291.75;7.97;;;;;;;8.95;100.00;91464.78;6302558;22;20376;-78
2023/10/19 09:18:46;;;;;;;190.95;5.63;;;;;;;9.00;100.00;91471.69;6276052;22;20103;-78
2023/10/19 09:21:24;;;;;;;22.30;2.30;;;;;;;9.03;100.00;91473.69;6303029;22;19991;-78
2023/10/19 09:23:54;;;;;;;20.67;2.17;;;;;;;9.05;100.00;91474.97;6301873;22;20022;-77
2023/10/19 09:26:21;;;;;;;6.15;1.90;;;;;;;9.08;100.00;91468.38;6274501;22;20043;-77
2023/10/19 09:28:51;;;;;;;2.90;1.83;;;;;;;9.17;100.00;91471.78;6301894;22;20068;-78
2023/10/19 09:31:18;;;;;;;3.15;1.80;;;;;;;9.22;100.00;91470.88;6274008;22;20390;-78
2023/10/19 09:33:45;;;;;;;2.70;1.60;;;;;;;9.25;100.00;91468.41;6301745;22;20007;-78
2023/10/19 09:36:12;;;;;;;16.63;2.08;;;;;;;9.25;100.00;91471.03;6301488;22;20003;-78
2023/10/19 09:38:51;;;;;;;6.22;1.92;;;;;;;9.25;100.00;91463.19;6301878;22;20011;-78
2023/10/19 09:41:28;;;;;;;45.05;2.83;;;;;;;9.29;100.00;91461.50;6301576;22;20007;-77
2023/10/19 09:44:02;;;;;;;372.08;9.90;;;;;;;9.25;100.00;91457.97;6302337;22;20064;-78
2023/10/19 09:46:32;;;;;;;746.35;17.75;;;;;;;9.22;100.00;91452.59;6302409;22;20007;-77
2023/10/19 09:48:58;;;;;;;84.90;3.63;;;;;;;9.20;100.00;91447.66;6301794;22;20003;-77
2023/10/19 09:51:24;;;;;;;39.63;3.05;;;;;;;9.18;100.00;91439.34;6274100;22;20074;-77
2023/10/19 09:54:14;;;;;;;3.50;2.10;;;;;;;9.21;100.00;91446.59;6301758;22;20021;-77
2023/10/19 09:56:44;;;;;;;2.40;1.63;;;;;;;9.31;100.00;91440.34;6301643;22;20014;-77
2023/10/19 09:59:29;;;;;;;2.60;1.67;;;;;;;9.40;100.00;91438.50;6301941;22;20141;-78
2023/10/19 10:02:05;;;;;;;146.32;5.10;;;;;;;9.42;100.00;91438.22;6301584;22;20061;-77
2023/10/19 10:04:31;;;;;;;244.50;6.93;;;;;;;9.39;100.00;91439.59;6301896;22;20065;-77
2023/10/19 10:07:05;;;;;;;372.02;9.30;;;;;;;9.37;100.00;91437.28;6301989;22;20000;-78
2023/10/19 10:09:33;;;;;;;244.70;8.07;;;;;;;9.36;100.00;91433.09;6302017;22;20011;-77
2023/10/19 10:12:23;;;;;;;175.90;5.50;;;;;;;9.49;100.00;91441.91;6301897;22;20341;-77
2023/10/19 10:15:09;;;;;;;583.33;12.98;;;;;;;9.43;100.00;91442.34;6301454;22;20021;-77
2023/10/19 10:17:40;;;;;;;314.25;7.30;;;;;;;9.33;100.00;91425.13;6301609;22;20118;-77
2023/10/19 10:20:14;;;;;;;140.23;4.40;;;;;;;9.29;100.00;91411.91;6303896;22;20448;-77
2023/10/19 10:22:43;;;;;;;333.42;7.38;;;;;;;9.28;100.00;91418.22;6301806;22;20437;-78
2023/10/19 10:25:26;;;;;;;102.50;4.03;;;;;;;9.28;100.00;91418.22;6301781;22;19995;-77
2023/10/19 10:27:52;;;;;;;670.10;16.60;;;;;;;9.28;100.00;91420.81;6301953;22;20018;-77
2023/10/19 10:30:18;;;;;;;229.85;8.52;;;;;;;9.33;100.00;91423.28;6302505;22;20031;-77
2023/10/19 10:32:44;;;;;;;198.93;6.00;;;;;;;9.50;100.00;91419.16;6302920;22;20023;-77
2023/10/19 10:35:10;;;;;;;338.80;8.85;;;;;;;9.43;100.00;91429.28;6301824;22;20026;-77
2023/10/19 10:37:37;;;;;;;9.05;2.00;;;;;;;9.42;100.00;91438.22;6301736;22;20015;-77
2023/10/19 10:40:05;;;;;;;0.80;0.80;;;;;;;9.50;100.00;91432.22;6273977;22;20543;-77
2023/10/19 10:42:31;;;;;;;6.40;1.00;;;;;;;9.48;100.00;91434.38;6301580;22;20011;-77
2023/10/19 10:44:58;;;;;;;3.70;1.00;;;;;;;9.54;100.00;91433.16;6301129;22;20333;-77
2023/10/19 10:47:29;;;;;;;39.22;2.03;;;;;;;9.54;100.00;91436.53;6302329;22;20077;-78
2023/10/19 10:49:56;;;;;;;6.47;1.10;;;;;;;9.59;100.00;91425.16;6301504;22;20106;-77
2023/10/19 10:52:34;;;;;;;14.23;1.52;;;;;;;9.68;100.00;91412.91;6301454;22;20006;-77
2023/10/19 10:55:14;;;;;;;1.67;1.10;;;;;;;9.78;100.00;91409.97;6301999;22;20011;-78
2023/10/19 10:57:41;;;;;;;0.98;0.90;;;;;;;9.81;100.00;91405.97;6301629;22;20022;-77
2023/10/19 11:00:09;;;;;;;1.25;1.10;;;;;;;9.92;100.00;91401.22;6300138;22;20003;-77
2023/10/19 11:02:42;;;;;;;3.35;0.95;;;;;;;10.02;100.00;91403.53;6299009;22;20003;-77
2023/10/19 11:05:11;;;;;;;126.10;6.15;;;;;;;10.08;100.00;91404.91;6301027;22;20068;-78
2023/10/19 11:07:38;;;;;;;962.00;22.33;;;;;;;9.95;100.00;91390.13;6303000;22;20007;-77
2023/10/19 11:10:05;;;;;;;756.45;20.33;;;;;;;9.72;100.00;91381.69;6278597;22;20015;-75
2023/10/19 11:12:33;;;;;;;872.55;21.08;;;;;;;9.65;100.00;91384.00;6279361;22;20088;-75
2023/10/19 11:15:00;;;;;;;447.08;13.48;;;;;;;9.61;100.00;91370.75;6277207;22;20014;-75
2023/10/19 11:17:30;;;;;;;380.05;11.40;;;;;;;9.61;100.00;91377.84;6305061;22;20019;-75
2023/10/19 11:19:59;;;;;;;570.17;15.20;;;;;;;9.54;100.00;91365.22;6276480;22;20011;-75
2023/10/19 11:22:26;;;;;;;276.05;7.90;;;;;;;9.57;100.00;91362.03;6303881;22;20007;-77
2023/10/19 11:24:54;;;;;;;459.67;13.10;;;;;;;9.50;100.00;91365.09;6251156;22;20042;-76
2023/10/19 11:27:27;;;;;;;564.08;16.70;;;;;;;9.47;100.00;91359.69;6275120;22;20019;-75
2023/10/19 11:29:59;;;;;;;271.77;7.68;;;;;;;9.52;100.00;91375.22;6275464;22;20140;-75
2023/10/19 11:32:26;;;;;;;420.88;13.68;;;;;;;9.42;100.00;91362.47;6303077;22;20050;-75
2023/10/19 11:34:54;;;;;;;1441.72;33.92;;;;;;;9.39;100.00;91361.25;6275744;22;20216;-74
2023/10/19 11:37:19;;;;;;;637.25;16.73;;;;;;;9.40;100.00;91359.38;6303354;22;20007;-75
2023/10/19 11:39:45;;;;;;;431.08;12.45;;;;;;;9.46;100.00;91358.19;6303782;22;20011;-76
2023/10/19 11:42:12;;;;;;;115.07;5.72;;;;;;;9.52;100.00;91356.94;6301675;22;20441;-75
2023/10/19 11:44:38;;;;;;;185.30;5.88;;;;;;;9.57;100.00;91343.72;6303300;22;20391;-75
2023/10/19 11:47:03;;;;;;;3.35;2.17;;;;;;;9.63;100.00;91347.72;6303825;22;19999;-75
2023/10/19 11:49:29;;;;;;;2.88;1.85;;;;;;;9.65;100.00;91327.28;6303077;22;20025;-75